sensor_id;sensor_type;location;lat;lon;timestamp;P1;durP1;ratioP1;P2;durP2;ratioP2
25854;SDS011;13680;49.936;11.344;2023-02-15T00:01:35;50.22;;;10.95;;
25854;SDS011;13680;49.936;11.344;2023-02-15T00:04:01;76.50;;;10.52;;
25854;SDS011;13680;49.936;11.344;2023-02-15T00:06:27;171.88;;;10.30;;
25854;SDS011;13680;49.936;11.344;2023-02-15T00:08:53;112.75;;;10.00;;
25854;SDS011;13680;49.936;11.344;2023-02-15T00:11:19;143.40;;;12.13;;
25854;SDS011;13680;49.936;11.344;2023-02-15T00:14:14;26.40;;;8.70;;
25854;SDS011;13680;49.936;11.344;2023-02-15T00:16:44;122.35;;;11.10;;
25854;SDS011;13680;49.936;11.344;2023-02-15T00:19:10;82.03;;;12.70;;
25854;SDS011;13680;49.936;11.344;2023-02-15T00:21:37;45.53;;;9.85;;
25854;SDS011;13680;49.936;11.344;2023-02-15T00:24:03;50.53;;;10.02;;
25854;SDS011;13680;49.936;11.344;2023-02-15T00:26:30;143.00;;;11.93;;
25854;SDS011;13680;49.936;11.344;2023-02-15T00:28:56;42.40;;;10.45;;
25854;SDS011;13680;49.936;11.344;2023-02-15T00:31:25;55.75;;;9.73;;
25854;SDS011;13680;49.936;11.344;2023-02-15T00:33:52;119.05;;;10.70;;
25854;SDS011;13680;49.936;11.344;2023-02-15T00:36:17;63.90;;;9.77;;
25854;SDS011;13680;49.936;11.344;2023-02-15T00:38:42;28.58;;;8.85;;
25854;SDS011;13680;49.936;11.344;2023-02-15T00:41:08;69.38;;;10.02;;
25854;SDS011;13680;49.936;11.344;2023-02-15T00:43:34;70.63;;;10.35;;
25854;SDS011;13680;49.936;11.344;2023-02-15T00:46:01;71.88;;;8.35;;
25854;SDS011;13680;49.936;11.344;2023-02-15T00:48:28;204.10;;;11.95;;
25854;SDS011;13680;49.936;11.344;2023-02-15T00:50:57;119.35;;;9.10;;
25854;SDS011;13680;49.936;11.344;2023-02-15T00:53:24;82.00;;;9.55;;
25854;SDS011;13680;49.936;11.344;2023-02-15T00:55:51;82.53;;;9.80;;
25854;SDS011;13680;49.936;11.344;2023-02-15T00:58:16;45.30;;;8.15;;
25854;SDS011;13680;49.936;11.344;2023-02-15T01:00:44;72.07;;;8.63;;
25854;SDS011;13680;49.936;11.344;2023-02-15T01:03:11;102.75;;;8.90;;
25854;SDS011;13680;49.936;11.344;2023-02-15T01:05:38;114.45;;;9.60;;
25854;SDS011;13680;49.936;11.344;2023-02-15T01:08:03;54.78;;;7.63;;
25854;SDS011;13680;49.936;11.344;2023-02-15T01:10:29;214.90;;;11.80;;
25854;SDS011;13680;49.936;11.344;2023-02-15T01:12:55;93.28;;;9.02;;
25854;SDS011;13680;49.936;11.344;2023-02-15T01:15:21;87.30;;;8.30;;
25854;SDS011;13680;49.936;11.344;2023-02-15T01:17:47;51.97;;;7.93;;
25854;SDS011;13680;49.936;11.344;2023-02-15T01:20:17;88.22;;;8.20;;
25854;SDS011;13680;49.936;11.344;2023-02-15T01:22:47;130.10;;;12.45;;
25854;SDS011;13680;49.936;11.344;2023-02-15T01:25:14;164.68;;;12.00;;
25854;SDS011;13680;49.936;11.344;2023-02-15T01:27:43;145.20;;;9.80;;
25854;SDS011;13680;49.936;11.344;2023-02-15T01:30:09;61.58;;;9.27;;
25854;SDS011;13680;49.936;11.344;2023-02-15T01:32:35;162.38;;;10.55;;
25854;SDS011;13680;49.936;11.344;2023-02-15T01:35:01;293.77;;;13.77;;
25854;SDS011;13680;49.936;11.344;2023-02-15T01:37:26;216.18;;;11.60;;
25854;SDS011;13680;49.936;11.344;2023-02-15T01:39:52;143.52;;;10.50;;
25854;SDS011;13680;49.936;11.344;2023-02-15T01:42:21;174.07;;;10.27;;
25854;SDS011;13680;49.936;11.344;2023-02-15T01:44:58;345.20;;;14.98;;
25854;SDS011;13680;49.936;11.344;2023-02-15T01:47:45;185.10;;;8.75;;
25854;SDS011;13680;49.936;11.344;2023-02-15T01:50:20;184.65;;;10.60;;
25854;SDS011;13680;49.936;11.344;2023-02-15T01:55:22;312.13;;;16.58;;
25854;SDS011;13680;49.936;11.344;2023-02-15T01:57:49;140.20;;;9.65;;
25854;SDS011;13680;49.936;11.344;2023-02-15T02:00:16;155.63;;;15.70;;
25854;SDS011;13680;49.936;11.344;2023-02-15T02:02:42;53.45;;;9.75;;
25854;SDS011;13680;49.936;11.344;2023-02-15T02:05:11;67.32;;;9.05;;
25854;SDS011;13680;49.936;11.344;2023-02-15T02:07:38;266.65;;;12.40;;
25854;SDS011;13680;49.936;11.344;2023-02-15T02:10:07;163.20;;;11.30;;
25854;SDS011;13680;49.936;11.344;2023-02-15T02:12:34;199.23;;;11.40;;
25854;SDS011;13680;49.936;11.344;2023-02-15T02:15:03;214.80;;;11.82;;
25854;SDS011;13680;49.936;11.344;2023-02-15T02:17:34;100.85;;;9.75;;
25854;SDS011;13680;49.936;11.344;2023-02-15T02:31:24;74.55;;;9.57;;
25854;SDS011;13680;49.936;11.344;2023-02-15T02:34:21;30.77;;;8.70;;
25854;SDS011;13680;49.936;11.344;2023-02-15T02:37:00;85.75;;;9.00;;
25854;SDS011;13680;49.936;11.344;2023-02-15T02:39:55;50.35;;;9.07;;
25854;SDS011;13680;49.936;11.344;2023-02-15T02:45:02;115.60;;;9.15;;
25854;SDS011;13680;49.936;11.344;2023-02-15T02:47:37;65.03;;;8.70;;
25854;SDS011;13680;49.936;11.344;2023-02-15T02:50:05;146.38;;;10.70;;
25854;SDS011;13680;49.936;11.344;2023-02-15T03:00:25;107.07;;;8.65;;
25854;SDS011;13680;49.936;11.344;2023-02-15T03:02:57;42.03;;;6.57;;
25854;SDS011;13680;49.936;11.344;2023-02-15T03:05:30;134.95;;;10.32;;
25854;SDS011;13680;49.936;11.344;2023-02-15T03:07:57;83.28;;;8.02;;
25854;SDS011;13680;49.936;11.344;2023-02-15T03:10:26;165.32;;;9.40;;
25854;SDS011;13680;49.936;11.344;2023-02-15T03:12:54;24.02;;;6.65;;
25854;SDS011;13680;49.936;11.344;2023-02-15T03:15:24;48.13;;;7.57;;
25854;SDS011;13680;49.936;11.344;2023-02-15T03:18:14;118.35;;;8.50;;
25854;SDS011;13680;49.936;11.344;2023-02-15T03:20:44;50.20;;;7.07;;
25854;SDS011;13680;49.936;11.344;2023-02-15T03:23:12;149.38;;;8.77;;
25854;SDS011;13680;49.936;11.344;2023-02-15T03:25:42;47.63;;;8.32;;
25854;SDS011;13680;49.936;11.344;2023-02-15T03:28:10;16.90;;;6.75;;
25854;SDS011;13680;49.936;11.344;2023-02-15T03:30:40;19.63;;;7.72;;
25854;SDS011;13680;49.936;11.344;2023-02-15T03:33:09;29.15;;;7.18;;
25854;SDS011;13680;49.936;11.344;2023-02-15T03:35:45;45.92;;;7.60;;
25854;SDS011;13680;49.936;11.344;2023-02-15T03:38:19;47.95;;;7.47;;
25854;SDS011;13680;49.936;11.344;2023-02-15T03:40:50;41.72;;;7.07;;
25854;SDS011;13680;49.936;11.344;2023-02-15T03:48:52;62.95;;;7.95;;
25854;SDS011;13680;49.936;11.344;2023-02-15T03:51:29;110.05;;;7.68;;
25854;SDS011;13680;49.936;11.344;2023-02-15T03:53:58;141.73;;;9.57;;
25854;SDS011;13680;49.936;11.344;2023-02-15T03:56:25;62.70;;;7.70;;
25854;SDS011;13680;49.936;11.344;2023-02-15T03:58:50;64.45;;;7.13;;
25854;SDS011;13680;49.936;11.344;2023-02-15T04:04:33;175.70;;;9.30;;
25854;SDS011;13680;49.936;11.344;2023-02-15T04:07:00;59.22;;;7.57;;
25854;SDS011;13680;49.936;11.344;2023-02-15T04:09:26;41.67;;;7.47;;
25854;SDS011;13680;49.936;11.344;2023-02-15T04:12:10;23.63;;;7.32;;
25854;SDS011;13680;49.936;11.344;2023-02-15T04:14:36;19.02;;;7.50;;
25854;SDS011;13680;49.936;11.344;2023-02-15T04:17:39;27.83;;;7.90;;
25854;SDS011;13680;49.936;11.344;2023-02-15T04:20:05;21.65;;;6.90;;
25854;SDS011;13680;49.936;11.344;2023-02-15T04:22:49;30.38;;;7.43;;
25854;SDS011;13680;49.936;11.344;2023-02-15T04:25:33;10.50;;;6.03;;
25854;SDS011;13680;49.936;11.344;2023-02-15T04:27:59;48.80;;;6.75;;
25854;SDS011;13680;49.936;11.344;2023-02-15T04:30:24;15.07;;;6.40;;
25854;SDS011;13680;49.936;11.344;2023-02-15T04:32:50;16.42;;;6.13;;
25854;SDS011;13680;49.936;11.344;2023-02-15T04:35:16;79.13;;;7.40;;
25854;SDS011;13680;49.936;11.344;2023-02-15T04:37:41;82.55;;;7.20;;
25854;SDS011;13680;49.936;11.344;2023-02-15T04:40:09;28.20;;;6.60;;
25854;SDS011;13680;49.936;11.344;2023-02-15T04:42:36;110.88;;;11.05;;
25854;SDS011;13680;49.936;11.344;2023-02-15T04:45:02;162.13;;;10.38;;
25854;SDS011;13680;49.936;11.344;2023-02-15T04:47:27;22.00;;;6.70;;
25854;SDS011;13680;49.936;11.344;2023-02-15T04:49:53;24.42;;;6.35;;
25854;SDS011;13680;49.936;11.344;2023-02-15T04:52:18;110.13;;;8.48;;
25854;SDS011;13680;49.936;11.344;2023-02-15T04:54:44;44.10;;;7.20;;
25854;SDS011;13680;49.936;11.344;2023-02-15T04:57:09;14.77;;;7.10;;
25854;SDS011;13680;49.936;11.344;2023-02-15T04:59:35;53.17;;;7.85;;
25854;SDS011;13680;49.936;11.344;2023-02-15T05:02:00;66.00;;;7.95;;
25854;SDS011;13680;49.936;11.344;2023-02-15T05:04:25;37.95;;;7.20;;
25854;SDS011;13680;49.936;11.344;2023-02-15T05:06:51;45.22;;;7.93;;
25854;SDS011;13680;49.936;11.344;2023-02-15T05:09:16;60.22;;;7.45;;
25854;SDS011;13680;49.936;11.344;2023-02-15T05:11:42;55.60;;;8.20;;
25854;SDS011;13680;49.936;11.344;2023-02-15T05:14:07;35.42;;;8.55;;
25854;SDS011;13680;49.936;11.344;2023-02-15T05:16:33;35.25;;;7.55;;
25854;SDS011;13680;49.936;11.344;2023-02-15T05:18:58;161.38;;;9.98;;
25854;SDS011;13680;49.936;11.344;2023-02-15T05:21:24;95.45;;;8.68;;
25854;SDS011;13680;49.936;11.344;2023-02-15T05:23:49;145.75;;;10.38;;
25854;SDS011;13680;49.936;11.344;2023-02-15T05:26:16;32.63;;;7.20;;
25854;SDS011;13680;49.936;11.344;2023-02-15T05:29:02;173.93;;;9.32;;
25854;SDS011;13680;49.936;11.344;2023-02-15T05:31:28;127.78;;;11.20;;
25854;SDS011;13680;49.936;11.344;2023-02-15T05:33:55;52.30;;;8.15;;
25854;SDS011;13680;49.936;11.344;2023-02-15T05:36:21;203.18;;;11.18;;
25854;SDS011;13680;49.936;11.344;2023-02-15T05:38:46;104.90;;;9.30;;
25854;SDS011;13680;49.936;11.344;2023-02-15T05:41:11;76.65;;;8.15;;
25854;SDS011;13680;49.936;11.344;2023-02-15T05:43:36;35.85;;;7.85;;
25854;SDS011;13680;49.936;11.344;2023-02-15T05:46:03;56.97;;;8.15;;
25854;SDS011;13680;49.936;11.344;2023-02-15T05:48:29;129.75;;;9.50;;
25854;SDS011;13680;49.936;11.344;2023-02-15T05:51:08;57.95;;;8.88;;
25854;SDS011;13680;49.936;11.344;2023-02-15T05:53:40;68.72;;;8.52;;
25854;SDS011;13680;49.936;11.344;2023-02-15T05:56:06;73.47;;;8.90;;
25854;SDS011;13680;49.936;11.344;2023-02-15T05:58:34;62.42;;;11.10;;
25854;SDS011;13680;49.936;11.344;2023-02-15T06:01:14;61.80;;;9.80;;
25854;SDS011;13680;49.936;11.344;2023-02-15T06:03:42;115.20;;;12.27;;
25854;SDS011;13680;49.936;11.344;2023-02-15T06:06:07;95.68;;;10.35;;
25854;SDS011;13680;49.936;11.344;2023-02-15T06:08:33;24.45;;;8.65;;
25854;SDS011;13680;49.936;11.344;2023-02-15T06:11:00;28.02;;;10.00;;
25854;SDS011;13680;49.936;11.344;2023-02-15T06:13:25;20.55;;;8.25;;
25854;SDS011;13680;49.936;11.344;2023-02-15T06:15:50;71.72;;;9.40;;
25854;SDS011;13680;49.936;11.344;2023-02-15T06:18:16;24.92;;;8.77;;
25854;SDS011;13680;49.936;11.344;2023-02-15T06:20:41;25.92;;;8.60;;
25854;SDS011;13680;49.936;11.344;2023-02-15T06:23:06;17.30;;;7.18;;
25854;SDS011;13680;49.936;11.344;2023-02-15T06:25:32;31.55;;;9.48;;
25854;SDS011;13680;49.936;11.344;2023-02-15T06:27:57;14.90;;;8.25;;
25854;SDS011;13680;49.936;11.344;2023-02-15T06:30:22;22.50;;;7.55;;
25854;SDS011;13680;49.936;11.344;2023-02-15T06:32:48;15.60;;;8.32;;
25854;SDS011;13680;49.936;11.344;2023-02-15T06:35:13;23.42;;;7.88;;
25854;SDS011;13680;49.936;11.344;2023-02-15T06:37:38;21.17;;;8.10;;
25854;SDS011;13680;49.936;11.344;2023-02-15T06:40:04;23.65;;;8.05;;
25854;SDS011;13680;49.936;11.344;2023-02-15T06:42:30;17.17;;;7.53;;
25854;SDS011;13680;49.936;11.344;2023-02-15T06:44:55;18.45;;;7.68;;
25854;SDS011;13680;49.936;11.344;2023-02-15T06:47:21;27.40;;;7.85;;
25854;SDS011;13680;49.936;11.344;2023-02-15T06:49:46;43.70;;;6.78;;
25854;SDS011;13680;49.936;11.344;2023-02-15T06:52:11;14.02;;;6.75;;
25854;SDS011;13680;49.936;11.344;2023-02-15T06:54:37;23.23;;;6.75;;
25854;SDS011;13680;49.936;11.344;2023-02-15T06:57:02;20.73;;;7.32;;
25854;SDS011;13680;49.936;11.344;2023-02-15T06:59:27;47.88;;;7.40;;
25854;SDS011;13680;49.936;11.344;2023-02-15T07:01:53;14.45;;;6.70;;
25854;SDS011;13680;49.936;11.344;2023-02-15T07:04:18;20.67;;;7.00;;
25854;SDS011;13680;49.936;11.344;2023-02-15T07:06:43;24.15;;;7.22;;
25854;SDS011;13680;49.936;11.344;2023-02-15T07:09:08;12.55;;;6.10;;
25854;SDS011;13680;49.936;11.344;2023-02-15T07:11:34;14.52;;;6.85;;
25854;SDS011;13680;49.936;11.344;2023-02-15T07:14:18;15.73;;;7.20;;
25854;SDS011;13680;49.936;11.344;2023-02-15T07:16:43;15.70;;;7.07;;
25854;SDS011;13680;49.936;11.344;2023-02-15T07:19:09;13.88;;;7.00;;
25854;SDS011;13680;49.936;11.344;2023-02-15T07:21:34;15.23;;;7.50;;
25854;SDS011;13680;49.936;11.344;2023-02-15T07:24:00;14.60;;;6.85;;
25854;SDS011;13680;49.936;11.344;2023-02-15T07:26:26;16.05;;;7.78;;
25854;SDS011;13680;49.936;11.344;2023-02-15T07:28:52;16.73;;;7.88;;
25854;SDS011;13680;49.936;11.344;2023-02-15T07:31:17;12.25;;;6.47;;
25854;SDS011;13680;49.936;11.344;2023-02-15T07:33:42;16.52;;;8.25;;
25854;SDS011;13680;49.936;11.344;2023-02-15T07:36:08;15.60;;;8.02;;
25854;SDS011;13680;49.936;11.344;2023-02-15T07:38:37;33.92;;;15.18;;
25854;SDS011;13680;49.936;11.344;2023-02-15T07:41:05;14.70;;;7.57;;
25854;SDS011;13680;49.936;11.344;2023-02-15T07:43:32;17.45;;;9.07;;
25854;SDS011;13680;49.936;11.344;2023-02-15T07:46:00;16.95;;;8.63;;
25854;SDS011;13680;49.936;11.344;2023-02-15T07:48:26;13.63;;;7.32;;
25854;SDS011;13680;49.936;11.344;2023-02-15T07:50:52;17.77;;;9.80;;
25854;SDS011;13680;49.936;11.344;2023-02-15T07:53:17;13.13;;;7.03;;
25854;SDS011;13680;49.936;11.344;2023-02-15T07:55:43;12.15;;;6.30;;
25854;SDS011;13680;49.936;11.344;2023-02-15T07:58:08;13.38;;;7.60;;
25854;SDS011;13680;49.936;11.344;2023-02-15T08:00:33;13.48;;;7.53;;
25854;SDS011;13680;49.936;11.344;2023-02-15T08:03:19;13.45;;;6.75;;
25854;SDS011;13680;49.936;11.344;2023-02-15T08:05:44;12.80;;;6.95;;
25854;SDS011;13680;49.936;11.344;2023-02-15T08:08:10;14.35;;;7.30;;
25854;SDS011;13680;49.936;11.344;2023-02-15T08:11:05;14.55;;;7.30;;
25854;SDS011;13680;49.936;11.344;2023-02-15T08:19:20;15.05;;;7.93;;
25854;SDS011;13680;49.936;11.344;2023-02-15T08:21:50;15.82;;;7.78;;
25854;SDS011;13680;49.936;11.344;2023-02-15T08:24:18;15.23;;;8.52;;
25854;SDS011;13680;49.936;11.344;2023-02-15T08:26:46;13.50;;;7.10;;
25854;SDS011;13680;49.936;11.344;2023-02-15T08:29:13;15.68;;;8.13;;
25854;SDS011;13680;49.936;11.344;2023-02-15T08:31:39;14.00;;;8.02;;
25854;SDS011;13680;49.936;11.344;2023-02-15T08:34:06;14.68;;;8.00;;
25854;SDS011;13680;49.936;11.344;2023-02-15T08:36:36;13.77;;;8.02;;
25854;SDS011;13680;49.936;11.344;2023-02-15T08:39:03;13.68;;;7.75;;
25854;SDS011;13680;49.936;11.344;2023-02-15T08:41:30;14.00;;;7.88;;
25854;SDS011;13680;49.936;11.344;2023-02-15T08:43:59;14.80;;;8.63;;
25854;SDS011;13680;49.936;11.344;2023-02-15T08:46:26;12.40;;;7.18;;
25854;SDS011;13680;49.936;11.344;2023-02-15T08:48:53;15.38;;;8.48;;
25854;SDS011;13680;49.936;11.344;2023-02-15T08:51:23;16.23;;;8.90;;
25854;SDS011;13680;49.936;11.344;2023-02-15T08:53:51;15.45;;;8.73;;
25854;SDS011;13680;49.936;11.344;2023-02-15T08:56:19;16.15;;;8.60;;
25854;SDS011;13680;49.936;11.344;2023-02-15T08:58:46;15.32;;;8.40;;
25854;SDS011;13680;49.936;11.344;2023-02-15T09:01:12;18.20;;;9.50;;
25854;SDS011;13680;49.936;11.344;2023-02-15T09:03:43;18.38;;;9.23;;
25854;SDS011;13680;49.936;11.344;2023-02-15T09:06:09;19.67;;;9.32;;
25854;SDS011;13680;49.936;11.344;2023-02-15T09:08:35;22.85;;;9.63;;
25854;SDS011;13680;49.936;11.344;2023-02-15T09:11:06;19.00;;;9.77;;
25854;SDS011;13680;49.936;11.344;2023-02-15T09:13:36;18.05;;;9.68;;
25854;SDS011;13680;49.936;11.344;2023-02-15T09:16:03;17.70;;;10.18;;
25854;SDS011;13680;49.936;11.344;2023-02-15T09:18:31;18.35;;;10.30;;
25854;SDS011;13680;49.936;11.344;2023-02-15T09:21:04;20.13;;;11.00;;
25854;SDS011;13680;49.936;11.344;2023-02-15T09:23:33;20.50;;;11.85;;
25854;SDS011;13680;49.936;11.344;2023-02-15T09:26:03;22.33;;;11.25;;
25854;SDS011;13680;49.936;11.344;2023-02-15T09:28:33;23.02;;;11.35;;
25854;SDS011;13680;49.936;11.344;2023-02-15T09:31:06;22.17;;;11.32;;
25854;SDS011;13680;49.936;11.344;2023-02-15T09:33:43;20.35;;;11.18;;
25854;SDS011;13680;49.936;11.344;2023-02-15T09:36:27;20.35;;;10.63;;
25854;SDS011;13680;49.936;11.344;2023-02-15T09:39:01;19.58;;;10.73;;
25854;SDS011;13680;49.936;11.344;2023-02-15T09:44:13;21.27;;;10.18;;
25854;SDS011;13680;49.936;11.344;2023-02-15T10:07:11;19.38;;;10.10;;
25854;SDS011;13680;49.936;11.344;2023-02-15T10:16:24;19.20;;;10.55;;
25854;SDS011;13680;49.936;11.344;2023-02-15T10:18:48;18.85;;;11.15;;
25854;SDS011;13680;49.936;11.344;2023-02-15T10:26:44;17.85;;;9.88;;
25854;SDS011;13680;49.936;11.344;2023-02-15T10:34:39;20.17;;;9.93;;
25854;SDS011;13680;49.936;11.344;2023-02-15T10:48:01;19.50;;;9.43;;
25854;SDS011;13680;49.936;11.344;2023-02-15T10:50:40;17.83;;;9.75;;
25854;SDS011;13680;49.936;11.344;2023-02-15T10:56:19;17.73;;;9.75;;
25854;SDS011;13680;49.936;11.344;2023-02-15T10:59:15;17.10;;;9.65;;
25854;SDS011;13680;49.936;11.344;2023-02-15T11:01:41;17.33;;;9.90;;
25854;SDS011;13680;49.936;11.344;2023-02-15T11:04:45;16.83;;;9.55;;
25854;SDS011;13680;49.936;11.344;2023-02-15T11:12:53;22.83;;;11.88;;
25854;SDS011;13680;49.936;11.344;2023-02-15T11:15:25;19.77;;;11.00;;
25854;SDS011;13680;49.936;11.344;2023-02-15T11:18:09;21.23;;;10.70;;
25854;SDS011;13680;49.936;11.344;2023-02-15T11:20:45;20.48;;;11.32;;
25854;SDS011;13680;49.936;11.344;2023-02-15T11:23:19;24.35;;;10.98;;
25854;SDS011;13680;49.936;11.344;2023-02-15T11:25:47;20.70;;;11.00;;
25854;SDS011;13680;49.936;11.344;2023-02-15T11:31:18;20.67;;;10.52;;
25854;SDS011;13680;49.936;11.344;2023-02-15T11:33:47;21.13;;;11.10;;
25854;SDS011;13680;49.936;11.344;2023-02-15T11:36:31;23.15;;;11.70;;
25854;SDS011;13680;49.936;11.344;2023-02-15T11:39:11;20.45;;;10.23;;
25854;SDS011;13680;49.936;11.344;2023-02-15T11:41:40;21.00;;;11.90;;
25854;SDS011;13680;49.936;11.344;2023-02-15T11:44:16;19.70;;;10.38;;
25854;SDS011;13680;49.936;11.344;2023-02-15T11:46:46;18.90;;;10.40;;
25854;SDS011;13680;49.936;11.344;2023-02-15T11:49:28;24.50;;;11.60;;
25854;SDS011;13680;49.936;11.344;2023-02-15T11:51:57;21.40;;;11.07;;
25854;SDS011;13680;49.936;11.344;2023-02-15T11:54:30;17.08;;;9.93;;
25854;SDS011;13680;49.936;11.344;2023-02-15T11:57:44;16.85;;;10.55;;
25854;SDS011;13680;49.936;11.344;2023-02-15T12:00:06;15.63;;;9.02;;
25854;SDS011;13680;49.936;11.344;2023-02-15T12:02:44;15.38;;;9.48;;
25854;SDS011;13680;49.936;11.344;2023-02-15T12:05:17;14.38;;;9.55;;
25854;SDS011;13680;49.936;11.344;2023-02-15T12:08:03;16.38;;;9.27;;
25854;SDS011;13680;49.936;11.344;2023-02-15T12:10:38;16.13;;;9.93;;
25854;SDS011;13680;49.936;11.344;2023-02-15T12:15:36;16.13;;;9.80;;
25854;SDS011;13680;49.936;11.344;2023-02-15T12:18:03;15.50;;;9.50;;
25854;SDS011;13680;49.936;11.344;2023-02-15T12:20:31;15.40;;;9.18;;
25854;SDS011;13680;49.936;11.344;2023-02-15T12:23:02;15.90;;;10.00;;
25854;SDS011;13680;49.936;11.344;2023-02-15T12:28:15;17.92;;;9.55;;
25854;SDS011;13680;49.936;11.344;2023-02-15T12:30:46;23.85;;;13.13;;
25854;SDS011;13680;49.936;11.344;2023-02-15T12:36:09;15.40;;;9.93;;
25854;SDS011;13680;49.936;11.344;2023-02-15T12:38:40;16.70;;;11.20;;
25854;SDS011;13680;49.936;11.344;2023-02-15T12:41:22;14.77;;;10.13;;
25854;SDS011;13680;49.936;11.344;2023-02-15T12:44:09;15.93;;;9.90;;
25854;SDS011;13680;49.936;11.344;2023-02-15T12:46:53;16.55;;;10.30;;
25854;SDS011;13680;49.936;11.344;2023-02-15T12:49:40;14.50;;;9.95;;
25854;SDS011;13680;49.936;11.344;2023-02-15T12:54:45;16.25;;;10.15;;
25854;SDS011;13680;49.936;11.344;2023-02-15T12:59:51;17.38;;;10.88;;
25854;SDS011;13680;49.936;11.344;2023-02-15T13:02:20;21.08;;;12.20;;
25854;SDS011;13680;49.936;11.344;2023-02-15T13:04:48;14.35;;;9.00;;
25854;SDS011;13680;49.936;11.344;2023-02-15T13:07:14;15.18;;;9.20;;
25854;SDS011;13680;49.936;11.344;2023-02-15T13:09:40;12.85;;;9.02;;
25854;SDS011;13680;49.936;11.344;2023-02-15T13:14:55;11.63;;;8.40;;
25854;SDS011;13680;49.936;11.344;2023-02-15T13:17:24;13.60;;;9.02;;
25854;SDS011;13680;49.936;11.344;2023-02-15T13:19:54;13.18;;;9.27;;
25854;SDS011;13680;49.936;11.344;2023-02-15T13:22:27;14.93;;;10.23;;
25854;SDS011;13680;49.936;11.344;2023-02-15T13:25:09;13.10;;;9.25;;
25854;SDS011;13680;49.936;11.344;2023-02-15T13:27:39;13.02;;;8.48;;
25854;SDS011;13680;49.936;11.344;2023-02-15T13:30:14;21.42;;;14.55;;
25854;SDS011;13680;49.936;11.344;2023-02-15T13:32:44;11.55;;;8.70;;
25854;SDS011;13680;49.936;11.344;2023-02-15T13:35:16;15.32;;;8.88;;
25854;SDS011;13680;49.936;11.344;2023-02-15T13:38:00;12.30;;;8.63;;
25854;SDS011;13680;49.936;11.344;2023-02-15T13:40:41;11.55;;;8.20;;
25854;SDS011;13680;49.936;11.344;2023-02-15T13:43:21;13.93;;;8.50;;
25854;SDS011;13680;49.936;11.344;2023-02-15T13:57:40;13.05;;;8.70;;
25854;SDS011;13680;49.936;11.344;2023-02-15T14:00:22;11.38;;;8.40;;
25854;SDS011;13680;49.936;11.344;2023-02-15T14:11:51;10.90;;;7.90;;
25854;SDS011;13680;49.936;11.344;2023-02-15T14:17:14;10.07;;;7.63;;
25854;SDS011;13680;49.936;11.344;2023-02-15T14:20:02;12.98;;;8.30;;
25854;SDS011;13680;49.936;11.344;2023-02-15T14:22:41;10.02;;;7.75;;
25854;SDS011;13680;49.936;11.344;2023-02-15T14:28:04;12.30;;;8.57;;
25854;SDS011;13680;49.936;11.344;2023-02-15T14:30:36;10.75;;;8.20;;
25854;SDS011;13680;49.936;11.344;2023-02-15T14:35:55;12.55;;;8.70;;
25854;SDS011;13680;49.936;11.344;2023-02-15T14:41:10;13.10;;;8.65;;
25854;SDS011;13680;49.936;11.344;2023-02-15T14:49:17;17.15;;;9.93;;
25854;SDS011;13680;49.936;11.344;2023-02-15T14:56:47;16.13;;;11.18;;
25854;SDS011;13680;49.936;11.344;2023-02-15T14:59:38;13.77;;;9.63;;
25854;SDS011;13680;49.936;11.344;2023-02-15T15:04:59;15.15;;;10.38;;
25854;SDS011;13680;49.936;11.344;2023-02-15T15:07:45;16.17;;;10.27;;
25854;SDS011;13680;49.936;11.344;2023-02-15T15:22:50;18.27;;;10.05;;
25854;SDS011;13680;49.936;11.344;2023-02-15T15:25:44;32.05;;;24.77;;
25854;SDS011;13680;49.936;11.344;2023-02-15T15:31:18;19.88;;;13.73;;
25854;SDS011;13680;49.936;11.344;2023-02-15T15:33:55;19.15;;;11.88;;
25854;SDS011;13680;49.936;11.344;2023-02-15T15:36:34;25.33;;;13.55;;
25854;SDS011;13680;49.936;11.344;2023-02-15T15:44:53;18.15;;;11.23;;
25854;SDS011;13680;49.936;11.344;2023-02-15T15:48:01;20.23;;;11.10;;
25854;SDS011;13680;49.936;11.344;2023-02-15T15:50:39;15.77;;;10.25;;
25854;SDS011;13680;49.936;11.344;2023-02-15T15:53:05;16.33;;;10.10;;
25854;SDS011;13680;49.936;11.344;2023-02-15T15:55:41;16.95;;;9.93;;
25854;SDS011;13680;49.936;11.344;2023-02-15T15:58:10;19.05;;;11.02;;
25854;SDS011;13680;49.936;11.344;2023-02-15T16:00:43;18.08;;;11.32;;
25854;SDS011;13680;49.936;11.344;2023-02-15T16:03:20;18.73;;;11.05;;
25854;SDS011;13680;49.936;11.344;2023-02-15T16:05:47;18.95;;;11.40;;
25854;SDS011;13680;49.936;11.344;2023-02-15T16:08:38;18.30;;;10.75;;
25854;SDS011;13680;49.936;11.344;2023-02-15T16:11:11;18.67;;;11.10;;
25854;SDS011;13680;49.936;11.344;2023-02-15T16:14:02;20.85;;;12.38;;
25854;SDS011;13680;49.936;11.344;2023-02-15T16:16:28;17.10;;;10.95;;
25854;SDS011;13680;49.936;11.344;2023-02-15T16:18:55;24.48;;;14.77;;
25854;SDS011;13680;49.936;11.344;2023-02-15T16:21:27;52.08;;;27.48;;
25854;SDS011;13680;49.936;11.344;2023-02-15T16:24:04;23.42;;;13.80;;
25854;SDS011;13680;49.936;11.344;2023-02-15T16:26:56;25.38;;;15.00;;
25854;SDS011;13680;49.936;11.344;2023-02-15T16:29:32;30.63;;;16.83;;
25854;SDS011;13680;49.936;11.344;2023-02-15T16:32:05;21.67;;;13.10;;
25854;SDS011;13680;49.936;11.344;2023-02-15T16:37:26;25.08;;;12.95;;
25854;SDS011;13680;49.936;11.344;2023-02-15T16:39:53;24.65;;;14.73;;
25854;SDS011;13680;49.936;11.344;2023-02-15T16:42:20;23.38;;;15.00;;
25854;SDS011;13680;49.936;11.344;2023-02-15T16:44:48;22.52;;;13.85;;
25854;SDS011;13680;49.936;11.344;2023-02-15T16:47:26;23.80;;;14.27;;
25854;SDS011;13680;49.936;11.344;2023-02-15T16:49:56;22.00;;;12.75;;
25854;SDS011;13680;49.936;11.344;2023-02-15T16:52:25;24.30;;;14.65;;
25854;SDS011;13680;49.936;11.344;2023-02-15T16:55:02;22.23;;;13.48;;
25854;SDS011;13680;49.936;11.344;2023-02-15T16:57:33;22.05;;;13.63;;
25854;SDS011;13680;49.936;11.344;2023-02-15T17:00:05;26.90;;;17.17;;
25854;SDS011;13680;49.936;11.344;2023-02-15T17:02:53;26.55;;;14.75;;
25854;SDS011;13680;49.936;11.344;2023-02-15T17:05:40;21.88;;;14.07;;
25854;SDS011;13680;49.936;11.344;2023-02-15T17:08:12;24.75;;;13.73;;
25854;SDS011;13680;49.936;11.344;2023-02-15T17:10:41;24.42;;;13.45;;
25854;SDS011;13680;49.936;11.344;2023-02-15T17:13:13;27.15;;;13.38;;
25854;SDS011;13680;49.936;11.344;2023-02-15T17:15:42;22.50;;;13.77;;
25854;SDS011;13680;49.936;11.344;2023-02-15T17:18:19;29.27;;;15.20;;
25854;SDS011;13680;49.936;11.344;2023-02-15T17:20:48;23.23;;;13.93;;
25854;SDS011;13680;49.936;11.344;2023-02-15T17:25:49;23.75;;;13.55;;
25854;SDS011;13680;49.936;11.344;2023-02-15T17:28:34;27.35;;;14.25;;
25854;SDS011;13680;49.936;11.344;2023-02-15T17:31:01;23.20;;;12.55;;
25854;SDS011;13680;49.936;11.344;2023-02-15T17:38:34;24.92;;;13.55;;
25854;SDS011;13680;49.936;11.344;2023-02-15T17:41:02;22.88;;;11.88;;
25854;SDS011;13680;49.936;11.344;2023-02-15T17:43:27;22.92;;;13.20;;
25854;SDS011;13680;49.936;11.344;2023-02-15T17:45:52;26.35;;;13.30;;
25854;SDS011;13680;49.936;11.344;2023-02-15T17:48:20;29.65;;;14.93;;
25854;SDS011;13680;49.936;11.344;2023-02-15T17:50:47;26.98;;;14.73;;